sensor_id;sensor_type;location;lat;lon;timestamp;P1;durP1;ratioP1;P2;durP2;ratioP2
30036;SDS011;36325;51.512;-0.382;2023-05-27T00:00:51;27.50;;;5.30;;
30036;SDS011;36325;51.512;-0.382;2023-05-27T00:03:19;31.30;;;5.63;;
30036;SDS011;36325;51.512;-0.382;2023-05-27T00:05:48;36.88;;;5.70;;
30036;SDS011;36325;51.512;-0.382;2023-05-27T00:08:16;26.23;;;5.75;;
30036;SDS011;36325;51.512;-0.382;2023-05-27T00:10:43;24.95;;;7.30;;
30036;SDS011;36325;51.512;-0.382;2023-05-27T00:13:11;27.05;;;6.57;;
30036;SDS011;36325;51.512;-0.382;2023-05-27T00:15:39;22.92;;;5.72;;
30036;SDS011;36325;51.512;-0.382;2023-05-27T00:18:07;35.58;;;6.13;;
30036;SDS011;36325;51.512;-0.382;2023-05-27T00:20:35;31.63;;;6.68;;
30036;SDS011;36325;51.512;-0.382;2023-05-27T00:23:03;29.02;;;6.35;;
30036;SDS011;36325;51.512;-0.382;2023-05-27T00:25:31;29.50;;;5.82;;
30036;SDS011;36325;51.512;-0.382;2023-05-27T00:27:58;25.63;;;6.60;;
30036;SDS011;36325;51.512;-0.382;2023-05-27T00:30:26;30.02;;;6.80;;
30036;SDS011;36325;51.512;-0.382;2023-05-27T00:32:54;31.52;;;5.97;;
30036;SDS011;36325;51.512;-0.382;2023-05-27T00:35:21;27.60;;;7.10;;
30036;SDS011;36325;51.512;-0.382;2023-05-27T00:37:49;37.08;;;7.00;;
30036;SDS011;36325;51.512;-0.382;2023-05-27T00:40:18;31.55;;;6.75;;
30036;SDS011;36325;51.512;-0.382;2023-05-27T00:42:48;27.92;;;5.70;;
30036;SDS011;36325;51.512;-0.382;2023-05-27T00:45:15;28.92;;;6.25;;
30036;SDS011;36325;51.512;-0.382;2023-05-27T00:47:43;36.50;;;7.68;;
30036;SDS011;36325;51.512;-0.382;2023-05-27T00:50:10;25.15;;;5.63;;
30036;SDS011;36325;51.512;-0.382;2023-05-27T00:52:39;31.25;;;6.07;;
30036;SDS011;36325;51.512;-0.382;2023-05-27T00:55:07;34.13;;;5.50;;
30036;SDS011;36325;51.512;-0.382;2023-05-27T00:57:35;27.88;;;6.82;;
30036;SDS011;36325;51.512;-0.382;2023-05-27T01:00:06;37.58;;;8.13;;
30036;SDS011;36325;51.512;-0.382;2023-05-27T01:05:09;30.10;;;6.35;;
30036;SDS011;36325;51.512;-0.382;2023-05-27T01:10:26;27.90;;;5.75;;
30036;SDS011;36325;51.512;-0.382;2023-05-27T01:16:00;30.95;;;6.47;;
30036;SDS011;36325;51.512;-0.382;2023-05-27T01:18:30;33.95;;;6.72;;
30036;SDS011;36325;51.512;-0.382;2023-05-27T01:21:02;29.60;;;6.50;;
30036;SDS011;36325;51.512;-0.382;2023-05-27T01:23:34;35.83;;;6.93;;
30036;SDS011;36325;51.512;-0.382;2023-05-27T01:26:05;36.00;;;9.47;;
30036;SDS011;36325;51.512;-0.382;2023-05-27T01:28:32;33.70;;;7.30;;
30036;SDS011;36325;51.512;-0.382;2023-05-27T01:31:06;35.00;;;6.50;;
30036;SDS011;36325;51.512;-0.382;2023-05-27T01:33:54;26.95;;;5.60;;
30036;SDS011;36325;51.512;-0.382;2023-05-27T01:36:27;30.55;;;7.47;;
30036;SDS011;36325;51.512;-0.382;2023-05-27T01:38:57;31.13;;;8.05;;
30036;SDS011;36325;51.512;-0.382;2023-05-27T01:41:26;27.45;;;5.78;;
30036;SDS011;36325;51.512;-0.382;2023-05-27T01:43:54;35.38;;;8.10;;
30036;SDS011;36325;51.512;-0.382;2023-05-27T01:46:22;31.58;;;5.55;;
30036;SDS011;36325;51.512;-0.382;2023-05-27T01:48:49;19.05;;;6.22;;
30036;SDS011;36325;51.512;-0.382;2023-05-27T01:51:17;38.85;;;7.60;;
30036;SDS011;36325;51.512;-0.382;2023-05-27T01:53:44;34.90;;;7.15;;
30036;SDS011;36325;51.512;-0.382;2023-05-27T01:56:11;32.05;;;6.75;;
30036;SDS011;36325;51.512;-0.382;2023-05-27T01:58:39;31.25;;;6.53;;
30036;SDS011;36325;51.512;-0.382;2023-05-27T02:01:06;36.10;;;7.78;;
30036;SDS011;36325;51.512;-0.382;2023-05-27T02:03:34;33.90;;;8.10;;
30036;SDS011;36325;51.512;-0.382;2023-05-27T02:06:02;30.17;;;7.82;;
30036;SDS011;36325;51.512;-0.382;2023-05-27T02:08:29;37.00;;;7.13;;
30036;SDS011;36325;51.512;-0.382;2023-05-27T02:10:57;33.65;;;7.10;;
30036;SDS011;36325;51.512;-0.382;2023-05-27T02:13:24;28.77;;;7.05;;
30036;SDS011;36325;51.512;-0.382;2023-05-27T02:15:51;35.90;;;7.50;;
30036;SDS011;36325;51.512;-0.382;2023-05-27T02:18:20;41.20;;;7.63;;
30036;SDS011;36325;51.512;-0.382;2023-05-27T02:20:48;35.97;;;8.60;;
30036;SDS011;36325;51.512;-0.382;2023-05-27T02:23:18;43.85;;;7.28;;
30036;SDS011;36325;51.512;-0.382;2023-05-27T02:25:45;47.40;;;7.85;;
30036;SDS011;36325;51.512;-0.382;2023-05-27T02:28:15;47.60;;;7.38;;
30036;SDS011;36325;51.512;-0.382;2023-05-27T02:30:43;40.17;;;7.75;;
30036;SDS011;36325;51.512;-0.382;2023-05-27T02:33:11;40.75;;;8.10;;
30036;SDS011;36325;51.512;-0.382;2023-05-27T02:35:38;37.63;;;6.93;;
30036;SDS011;36325;51.512;-0.382;2023-05-27T02:38:06;32.75;;;7.93;;
30036;SDS011;36325;51.512;-0.382;2023-05-27T02:40:33;31.25;;;8.25;;
30036;SDS011;36325;51.512;-0.382;2023-05-27T02:43:01;34.53;;;8.75;;
30036;SDS011;36325;51.512;-0.382;2023-05-27T02:45:28;35.95;;;7.82;;
30036;SDS011;36325;51.512;-0.382;2023-05-27T02:47:57;44.13;;;8.30;;
30036;SDS011;36325;51.512;-0.382;2023-05-27T02:50:28;35.05;;;8.02;;
30036;SDS011;36325;51.512;-0.382;2023-05-27T02:52:56;33.95;;;6.75;;
30036;SDS011;36325;51.512;-0.382;2023-05-27T02:55:24;25.52;;;6.95;;
30036;SDS011;36325;51.512;-0.382;2023-05-27T02:57:51;36.10;;;7.95;;
30036;SDS011;36325;51.512;-0.382;2023-05-27T03:00:18;33.75;;;8.48;;
30036;SDS011;36325;51.512;-0.382;2023-05-27T03:02:47;35.72;;;8.50;;
30036;SDS011;36325;51.512;-0.382;2023-05-27T03:05:16;45.08;;;8.32;;
30036;SDS011;36325;51.512;-0.382;2023-05-27T03:07:43;31.20;;;7.45;;
30036;SDS011;36325;51.512;-0.382;2023-05-27T03:10:11;34.40;;;8.07;;
30036;SDS011;36325;51.512;-0.382;2023-05-27T03:12:38;39.65;;;7.72;;
30036;SDS011;36325;51.512;-0.382;2023-05-27T03:15:06;36.97;;;7.88;;
30036;SDS011;36325;51.512;-0.382;2023-05-27T03:17:37;34.53;;;7.70;;
30036;SDS011;36325;51.512;-0.382;2023-05-27T03:20:05;33.08;;;7.68;;
30036;SDS011;36325;51.512;-0.382;2023-05-27T03:22:34;31.15;;;7.25;;
30036;SDS011;36325;51.512;-0.382;2023-05-27T03:25:03;46.20;;;9.05;;
30036;SDS011;36325;51.512;-0.382;2023-05-27T03:27:31;41.20;;;8.50;;
30036;SDS011;36325;51.512;-0.382;2023-05-27T03:30:01;51.03;;;8.20;;
30036;SDS011;36325;51.512;-0.382;2023-05-27T03:32:29;37.13;;;9.32;;
30036;SDS011;36325;51.512;-0.382;2023-05-27T03:34:57;40.28;;;8.60;;
30036;SDS011;36325;51.512;-0.382;2023-05-27T03:37:24;37.00;;;8.18;;
30036;SDS011;36325;51.512;-0.382;2023-05-27T03:40:00;34.00;;;7.70;;
30036;SDS011;36325;51.512;-0.382;2023-05-27T03:42:29;44.58;;;7.80;;
30036;SDS011;36325;51.512;-0.382;2023-05-27T03:44:56;28.77;;;7.82;;
30036;SDS011;36325;51.512;-0.382;2023-05-27T03:47:26;33.28;;;8.38;;
30036;SDS011;36325;51.512;-0.382;2023-05-27T03:49:53;38.00;;;8.02;;
30036;SDS011;36325;51.512;-0.382;2023-05-27T03:52:20;36.53;;;8.10;;
30036;SDS011;36325;51.512;-0.382;2023-05-27T03:54:48;58.35;;;9.13;;
30036;SDS011;36325;51.512;-0.382;2023-05-27T03:57:15;35.55;;;8.07;;
30036;SDS011;36325;51.512;-0.382;2023-05-27T03:59:43;40.10;;;8.48;;
30036;SDS011;36325;51.512;-0.382;2023-05-27T04:02:10;34.17;;;8.27;;
30036;SDS011;36325;51.512;-0.382;2023-05-27T04:04:38;28.65;;;8.18;;
30036;SDS011;36325;51.512;-0.382;2023-05-27T04:07:05;33.17;;;7.85;;
30036;SDS011;36325;51.512;-0.382;2023-05-27T04:09:34;33.75;;;7.85;;
30036;SDS011;36325;51.512;-0.382;2023-05-27T04:12:02;49.65;;;9.85;;
30036;SDS011;36325;51.512;-0.382;2023-05-27T04:14:29;35.65;;;8.35;;
30036;SDS011;36325;51.512;-0.382;2023-05-27T04:16:57;42.90;;;7.68;;
30036;SDS011;36325;51.512;-0.382;2023-05-27T04:19:24;38.83;;;7.45;;
30036;SDS011;36325;51.512;-0.382;2023-05-27T04:21:53;34.90;;;8.25;;
30036;SDS011;36325;51.512;-0.382;2023-05-27T04:24:24;28.10;;;7.45;;
30036;SDS011;36325;51.512;-0.382;2023-05-27T04:26:53;31.30;;;7.65;;
30036;SDS011;36325;51.512;-0.382;2023-05-27T04:29:20;37.65;;;9.63;;
30036;SDS011;36325;51.512;-0.382;2023-05-27T04:31:49;30.75;;;7.20;;
30036;SDS011;36325;51.512;-0.382;2023-05-27T04:34:19;30.75;;;7.72;;
30036;SDS011;36325;51.512;-0.382;2023-05-27T04:36:47;42.10;;;7.72;;
30036;SDS011;36325;51.512;-0.382;2023-05-27T04:39:21;34.53;;;7.35;;
30036;SDS011;36325;51.512;-0.382;2023-05-27T04:41:49;39.42;;;7.90;;
30036;SDS011;36325;51.512;-0.382;2023-05-27T04:44:26;38.38;;;8.32;;
30036;SDS011;36325;51.512;-0.382;2023-05-27T04:46:57;45.92;;;7.97;;
30036;SDS011;36325;51.512;-0.382;2023-05-27T04:49:25;37.03;;;9.98;;
30036;SDS011;36325;51.512;-0.382;2023-05-27T04:51:53;39.15;;;8.68;;
30036;SDS011;36325;51.512;-0.382;2023-05-27T04:54:21;36.53;;;8.00;;
30036;SDS011;36325;51.512;-0.382;2023-05-27T04:56:49;41.45;;;9.00;;
30036;SDS011;36325;51.512;-0.382;2023-05-27T04:59:26;34.88;;;8.95;;
30036;SDS011;36325;51.512;-0.382;2023-05-27T05:02:18;38.03;;;8.60;;
30036;SDS011;36325;51.512;-0.382;2023-05-27T05:05:01;33.08;;;9.15;;
30036;SDS011;36325;51.512;-0.382;2023-05-27T05:07:33;27.20;;;7.57;;
30036;SDS011;36325;51.512;-0.382;2023-05-27T05:10:05;26.63;;;8.27;;
30036;SDS011;36325;51.512;-0.382;2023-05-27T05:12:56;28.65;;;7.22;;
30036;SDS011;36325;51.512;-0.382;2023-05-27T05:15:25;28.60;;;8.60;;
30036;SDS011;36325;51.512;-0.382;2023-05-27T05:17:55;39.72;;;7.95;;
30036;SDS011;36325;51.512;-0.382;2023-05-27T05:20:25;32.67;;;8.23;;
30036;SDS011;36325;51.512;-0.382;2023-05-27T05:22:53;31.55;;;8.40;;
30036;SDS011;36325;51.512;-0.382;2023-05-27T05:25:22;32.92;;;9.20;;
30036;SDS011;36325;51.512;-0.382;2023-05-27T05:27:52;28.00;;;7.93;;
30036;SDS011;36325;51.512;-0.382;2023-05-27T05:30:20;40.58;;;8.23;;
30036;SDS011;36325;51.512;-0.382;2023-05-27T05:32:48;38.75;;;9.68;;
30036;SDS011;36325;51.512;-0.382;2023-05-27T05:35:16;37.45;;;8.65;;
30036;SDS011;36325;51.512;-0.382;2023-05-27T05:37:49;41.88;;;9.45;;
30036;SDS011;36325;51.512;-0.382;2023-05-27T05:40:16;34.10;;;8.43;;
30036;SDS011;36325;51.512;-0.382;2023-05-27T05:42:55;45.22;;;7.55;;
30036;SDS011;36325;51.512;-0.382;2023-05-27T05:45:22;42.03;;;8.55;;
30036;SDS011;36325;51.512;-0.382;2023-05-27T05:47:52;35.80;;;8.60;;
30036;SDS011;36325;51.512;-0.382;2023-05-27T05:50:23;35.45;;;7.95;;
30036;SDS011;36325;51.512;-0.382;2023-05-27T05:52:51;37.20;;;7.72;;
30036;SDS011;36325;51.512;-0.382;2023-05-27T05:55:19;29.60;;;7.32;;
30036;SDS011;36325;51.512;-0.382;2023-05-27T05:57:47;34.72;;;7.55;;
30036;SDS011;36325;51.512;-0.382;2023-05-27T06:00:15;28.85;;;6.88;;
30036;SDS011;36325;51.512;-0.382;2023-05-27T06:02:45;37.65;;;8.25;;
30036;SDS011;36325;51.512;-0.382;2023-05-27T06:05:32;21.83;;;6.07;;
30036;SDS011;36325;51.512;-0.382;2023-05-27T06:08:00;29.50;;;7.20;;
30036;SDS011;36325;51.512;-0.382;2023-05-27T06:10:28;36.38;;;7.03;;
30036;SDS011;36325;51.512;-0.382;2023-05-27T06:12:56;29.38;;;6.88;;
30036;SDS011;36325;51.512;-0.382;2023-05-27T06:15:24;31.08;;;6.50;;
30036;SDS011;36325;51.512;-0.382;2023-05-27T06:17:53;28.17;;;6.85;;
30036;SDS011;36325;51.512;-0.382;2023-05-27T06:20:23;25.52;;;6.30;;
30036;SDS011;36325;51.512;-0.382;2023-05-27T06:22:51;26.33;;;6.68;;
30036;SDS011;36325;51.512;-0.382;2023-05-27T06:25:39;18.92;;;5.43;;
30036;SDS011;36325;51.512;-0.382;2023-05-27T06:28:07;43.80;;;7.43;;
30036;SDS011;36325;51.512;-0.382;2023-05-27T06:30:35;33.50;;;7.13;;
30036;SDS011;36325;51.512;-0.382;2023-05-27T06:33:08;22.50;;;5.97;;
30036;SDS011;36325;51.512;-0.382;2023-05-27T06:35:36;27.95;;;7.10;;
30036;SDS011;36325;51.512;-0.382;2023-05-27T06:38:04;21.92;;;6.32;;
30036;SDS011;36325;51.512;-0.382;2023-05-27T06:40:32;37.42;;;6.90;;
30036;SDS011;36325;51.512;-0.382;2023-05-27T06:42:59;26.25;;;5.97;;
30036;SDS011;36325;51.512;-0.382;2023-05-27T06:45:49;27.38;;;6.35;;
30036;SDS011;36325;51.512;-0.382;2023-05-27T06:48:40;21.85;;;5.88;;
30036;SDS011;36325;51.512;-0.382;2023-05-27T06:51:07;24.67;;;5.03;;
30036;SDS011;36325;51.512;-0.382;2023-05-27T06:53:35;25.45;;;5.78;;
30036;SDS011;36325;51.512;-0.382;2023-05-27T06:56:08;27.17;;;6.50;;
30036;SDS011;36325;51.512;-0.382;2023-05-27T06:58:53;33.03;;;6.80;;
30036;SDS011;36325;51.512;-0.382;2023-05-27T07:01:21;17.58;;;5.20;;
30036;SDS011;36325;51.512;-0.382;2023-05-27T07:03:52;26.77;;;5.10;;
30036;SDS011;36325;51.512;-0.382;2023-05-27T07:06:40;37.00;;;6.38;;
30036;SDS011;36325;51.512;-0.382;2023-05-27T07:09:07;23.88;;;5.68;;
30036;SDS011;36325;51.512;-0.382;2023-05-27T07:11:34;23.20;;;5.38;;
30036;SDS011;36325;51.512;-0.382;2023-05-27T07:14:06;20.25;;;5.72;;
30036;SDS011;36325;51.512;-0.382;2023-05-27T07:16:37;22.93;;;5.80;;
30036;SDS011;36325;51.512;-0.382;2023-05-27T07:19:06;34.65;;;6.50;;
30036;SDS011;36325;51.512;-0.382;2023-05-27T07:21:43;22.85;;;4.88;;
30036;SDS011;36325;51.512;-0.382;2023-05-27T07:24:15;22.80;;;5.38;;
30036;SDS011;36325;51.512;-0.382;2023-05-27T07:26:42;29.63;;;6.20;;
30036;SDS011;36325;51.512;-0.382;2023-05-27T07:29:10;21.23;;;5.25;;
30036;SDS011;36325;51.512;-0.382;2023-05-27T07:32:04;25.38;;;4.97;;
30036;SDS011;36325;51.512;-0.382;2023-05-27T07:34:35;25.50;;;5.70;;
30036;SDS011;36325;51.512;-0.382;2023-05-27T07:37:02;24.95;;;5.38;;
30036;SDS011;36325;51.512;-0.382;2023-05-27T07:39:30;19.73;;;4.80;;
30036;SDS011;36325;51.512;-0.382;2023-05-27T07:41:57;21.70;;;5.47;;
30036;SDS011;36325;51.512;-0.382;2023-05-27T07:44:28;29.27;;;5.70;;
30036;SDS011;36325;51.512;-0.382;2023-05-27T07:46:57;17.20;;;4.32;;
30036;SDS011;36325;51.512;-0.382;2023-05-27T07:49:27;17.13;;;5.00;;
30036;SDS011;36325;51.512;-0.382;2023-05-27T07:52:21;17.17;;;4.40;;
30036;SDS011;36325;51.512;-0.382;2023-05-27T07:54:48;21.08;;;5.15;;
30036;SDS011;36325;51.512;-0.382;2023-05-27T07:57:24;21.10;;;4.20;;
30036;SDS011;36325;51.512;-0.382;2023-05-27T07:59:53;16.98;;;5.13;;
30036;SDS011;36325;51.512;-0.382;2023-05-27T08:02:25;21.92;;;4.95;;
30036;SDS011;36325;51.512;-0.382;2023-05-27T08:04:53;20.27;;;4.70;;
30036;SDS011;36325;51.512;-0.382;2023-05-27T08:07:20;16.20;;;4.78;;
30036;SDS011;36325;51.512;-0.382;2023-05-27T08:10:10;25.65;;;6.00;;
30036;SDS011;36325;51.512;-0.382;2023-05-27T08:13:00;20.73;;;5.53;;
30036;SDS011;36325;51.512;-0.382;2023-05-27T08:15:34;23.13;;;4.78;;
30036;SDS011;36325;51.512;-0.382;2023-05-27T08:18:20;21.20;;;5.18;;
30036;SDS011;36325;51.512;-0.382;2023-05-27T08:21:08;20.05;;;4.47;;
30036;SDS011;36325;51.512;-0.382;2023-05-27T08:23:55;20.83;;;4.75;;
30036;SDS011;36325;51.512;-0.382;2023-05-27T08:26:23;18.38;;;4.05;;
30036;SDS011;36325;51.512;-0.382;2023-05-27T08:28:56;25.15;;;5.10;;
30036;SDS011;36325;51.512;-0.382;2023-05-27T08:31:36;23.88;;;4.93;;
30036;SDS011;36325;51.512;-0.382;2023-05-27T08:34:04;26.38;;;5.60;;
30036;SDS011;36325;51.512;-0.382;2023-05-27T08:36:33;28.80;;;5.68;;
30036;SDS011;36325;51.512;-0.382;2023-05-27T08:39:01;23.05;;;6.07;;
30036;SDS011;36325;51.512;-0.382;2023-05-27T08:41:36;20.95;;;4.72;;
30036;SDS011;36325;51.512;-0.382;2023-05-27T08:44:04;17.58;;;4.55;;
30036;SDS011;36325;51.512;-0.382;2023-05-27T08:46:49;21.92;;;5.50;;
30036;SDS011;36325;51.512;-0.382;2023-05-27T08:49:22;21.65;;;4.85;;
30036;SDS011;36325;51.512;-0.382;2023-05-27T08:51:50;23.42;;;5.80;;
30036;SDS011;36325;51.512;-0.382;2023-05-27T08:54:20;28.67;;;5.75;;
30036;SDS011;36325;51.512;-0.382;2023-05-27T08:56:51;17.17;;;5.45;;
30036;SDS011;36325;51.512;-0.382;2023-05-27T08:59:21;16.95;;;4.60;;
30036;SDS011;36325;51.512;-0.382;2023-05-27T09:01:49;17.80;;;5.10;;
30036;SDS011;36325;51.512;-0.382;2023-05-27T09:04:18;16.77;;;5.55;;
30036;SDS011;36325;51.512;-0.382;2023-05-27T09:06:46;22.17;;;6.10;;
30036;SDS011;36325;51.512;-0.382;2023-05-27T09:09:13;23.38;;;5.80;;
30036;SDS011;36325;51.512;-0.382;2023-05-27T09:11:40;22.52;;;5.10;;
30036;SDS011;36325;51.512;-0.382;2023-05-27T09:14:12;19.98;;;5.70;;
30036;SDS011;36325;51.512;-0.382;2023-05-27T09:16:47;22.20;;;6.45;;
30036;SDS011;36325;51.512;-0.382;2023-05-27T09:19:15;16.42;;;6.10;;
30036;SDS011;36325;51.512;-0.382;2023-05-27T09:21:46;20.52;;;5.72;;
30036;SDS011;36325;51.512;-0.382;2023-05-27T09:24:13;17.48;;;5.63;;
30036;SDS011;36325;51.512;-0.382;2023-05-27T09:26:41;22.35;;;5.90;;
30036;SDS011;36325;51.512;-0.382;2023-05-27T09:29:08;14.73;;;5.07;;
30036;SDS011;36325;51.512;-0.382;2023-05-27T09:31:39;20.73;;;5.38;;
30036;SDS011;36325;51.512;-0.382;2023-05-27T09:36:42;20.58;;;6.05;;
30036;SDS011;36325;51.512;-0.382;2023-05-27T09:39:14;19.60;;;5.68;;
30036;SDS011;36325;51.512;-0.382;2023-05-27T09:41:42;20.10;;;6.50;;
30036;SDS011;36325;51.512;-0.382;2023-05-27T09:44:09;23.83;;;6.32;;
30036;SDS011;36325;51.512;-0.382;2023-05-27T09:46:37;21.90;;;7.00;;
30036;SDS011;36325;51.512;-0.382;2023-05-27T09:49:06;19.92;;;7.00;;
30036;SDS011;36325;51.512;-0.382;2023-05-27T09:51:35;21.83;;;6.13;;
30036;SDS011;36325;51.512;-0.382;2023-05-27T09:54:05;17.02;;;6.40;;
30036;SDS011;36325;51.512;-0.382;2023-05-27T09:56:33;26.75;;;7.05;;
30036;SDS011;36325;51.512;-0.382;2023-05-27T09:59:01;21.58;;;7.00;;
30036;SDS011;36325;51.512;-0.382;2023-05-27T10:01:31;14.98;;;6.63;;
30036;SDS011;36325;51.512;-0.382;2023-05-27T10:04:00;22.17;;;6.55;;
30036;SDS011;36325;51.512;-0.382;2023-05-27T10:06:28;24.27;;;6.45;;
30036;SDS011;36325;51.512;-0.382;2023-05-27T10:08:58;25.23;;;7.15;;
30036;SDS011;36325;51.512;-0.382;2023-05-27T10:11:30;17.58;;;6.70;;
30036;SDS011;36325;51.512;-0.382;2023-05-27T10:13:58;20.35;;;6.95;;
30036;SDS011;36325;51.512;-0.382;2023-05-27T10:16:26;20.70;;;8.10;;
30036;SDS011;36325;51.512;-0.382;2023-05-27T10:18:56;27.65;;;7.88;;
30036;SDS011;36325;51.512;-0.382;2023-05-27T10:21:29;24.77;;;7.07;;
30036;SDS011;36325;51.512;-0.382;2023-05-27T10:24:00;28.08;;;6.90;;
30036;SDS011;36325;51.512;-0.382;2023-05-27T10:29:07;22.02;;;6.65;;
30036;SDS011;36325;51.512;-0.382;2023-05-27T10:31:36;19.40;;;6.78;;
30036;SDS011;36325;51.512;-0.382;2023-05-27T10:34:15;26.50;;;7.13;;
30036;SDS011;36325;51.512;-0.382;2023-05-27T10:36:44;20.20;;;7.03;;
30036;SDS011;36325;51.512;-0.382;2023-05-27T10:39:13;28.60;;;6.82;;
30036;SDS011;36325;51.512;-0.382;2023-05-27T10:41:43;18.52;;;5.65;;
30036;SDS011;36325;51.512;-0.382;2023-05-27T10:44:11;17.50;;;5.68;;
30036;SDS011;36325;51.512;-0.382;2023-05-27T10:46:42;16.15;;;5.47;;
30036;SDS011;36325;51.512;-0.382;2023-05-27T10:49:15;20.75;;;6.45;;
30036;SDS011;36325;51.512;-0.382;2023-05-27T10:51:48;22.02;;;7.50;;
30036;SDS011;36325;51.512;-0.382;2023-05-27T10:54:16;17.08;;;6.63;;
30036;SDS011;36325;51.512;-0.382;2023-05-27T10:56:54;17.90;;;6.15;;
30036;SDS011;36325;51.512;-0.382;2023-05-27T10:59:22;18.95;;;7.30;;
30036;SDS011;36325;51.512;-0.382;2023-05-27T11:01:53;20.77;;;6.68;;
30036;SDS011;36325;51.512;-0.382;2023-05-27T11:04:21;21.58;;;8.57;;
30036;SDS011;36325;51.512;-0.382;2023-05-27T11:06:56;14.13;;;6.90;;
30036;SDS011;36325;51.512;-0.382;2023-05-27T11:09:29;26.08;;;7.35;;
30036;SDS011;36325;51.512;-0.382;2023-05-27T11:12:00;22.08;;;6.93;;
30036;SDS011;36325;51.512;-0.382;2023-05-27T11:14:30;19.95;;;6.45;;
30036;SDS011;36325;51.512;-0.382;2023-05-27T11:16:57;20.27;;;7.50;;
30036;SDS011;36325;51.512;-0.382;2023-05-27T11:19:25;13.48;;;5.05;;
30036;SDS011;36325;51.512;-0.382;2023-05-27T11:21:52;20.83;;;6.38;;
30036;SDS011;36325;51.512;-0.382;2023-05-27T11:24:19;22.40;;;5.70;;
30036;SDS011;36325;51.512;-0.382;2023-05-27T11:26:48;19.50;;;6.85;;
30036;SDS011;36325;51.512;-0.382;2023-05-27T11:29:16;20.60;;;6.82;;
30036;SDS011;36325;51.512;-0.382;2023-05-27T11:31:46;18.42;;;5.32;;
30036;SDS011;36325;51.512;-0.382;2023-05-27T11:34:15;12.35;;;5.82;;
30036;SDS011;36325;51.512;-0.382;2023-05-27T11:36:47;15.48;;;5.78;;
30036;SDS011;36325;51.512;-0.382;2023-05-27T11:39:16;15.30;;;5.97;;
30036;SDS011;36325;51.512;-0.382;2023-05-27T11:41:50;16.80;;;5.55;;
30036;SDS011;36325;51.512;-0.382;2023-05-27T11:44:19;14.15;;;5.75;;
30036;SDS011;36325;51.512;-0.382;2023-05-27T11:46:52;15.98;;;5.55;;
30036;SDS011;36325;51.512;-0.382;2023-05-27T11:49:28;17.27;;;5.63;;
30036;SDS011;36325;51.512;-0.382;2023-05-27T11:51:55;12.60;;;4.70;;
30036;SDS011;36325;51.512;-0.382;2023-05-27T11:54:27;18.15;;;5.10;;
30036;SDS011;36325;51.512;-0.382;2023-05-27T11:56:56;18.08;;;5.65;;
30036;SDS011;36325;51.512;-0.382;2023-05-27T11:59:25;19.40;;;5.22;;
30036;SDS011;36325;51.512;-0.382;2023-05-27T12:01:53;17.55;;;5.10;;
30036;SDS011;36325;51.512;-0.382;2023-05-27T12:04:21;15.52;;;5.00;;
30036;SDS011;36325;51.512;-0.382;2023-05-27T12:06:48;9.98;;;3.97;;
30036;SDS011;36325;51.512;-0.382;2023-05-27T12:09:15;11.98;;;5.10;;
30036;SDS011;36325;51.512;-0.382;2023-05-27T12:11:42;12.63;;;4.70;;
30036;SDS011;36325;51.512;-0.382;2023-05-27T12:14:10;14.80;;;4.90;;
30036;SDS011;36325;51.512;-0.382;2023-05-27T12:16:37;17.27;;;4.95;;
30036;SDS011;36325;51.512;-0.382;2023-05-27T12:19:06;19.20;;;5.25;;
30036;SDS011;36325;51.512;-0.382;2023-05-27T12:24:05;16.20;;;4.97;;
30036;SDS011;36325;51.512;-0.382;2023-05-27T12:26:33;17.38;;;4.97;;
30036;SDS011;36325;51.512;-0.382;2023-05-27T12:29:01;18.05;;;4.70;;
30036;SDS011;36325;51.512;-0.382;2023-05-27T12:31:29;15.18;;;4.47;;
30036;SDS011;36325;51.512;-0.382;2023-05-27T12:33:56;12.27;;;4.65;;
30036;SDS011;36325;51.512;-0.382;2023-05-27T12:36:24;12.32;;;4.07;;
30036;SDS011;36325;51.512;-0.382;2023-05-27T12:38:51;16.83;;;5.68;;
30036;SDS011;36325;51.512;-0.382;2023-05-27T12:41:19;15.57;;;4.18;;
30036;SDS011;36325;51.512;-0.382;2023-05-27T12:43:47;11.00;;;4.05;;
30036;SDS011;36325;51.512;-0.382;2023-05-27T12:46:15;14.57;;;4.05;;
30036;SDS011;36325;51.512;-0.382;2023-05-27T12:48:43;14.25;;;4.00;;
30036;SDS011;36325;51.512;-0.382;2023-05-27T12:51:13;14.63;;;4.80;;
30036;SDS011;36325;51.512;-0.382;2023-05-27T12:53:41;13.48;;;4.97;;
30036;SDS011;36325;51.512;-0.382;2023-05-27T12:56:09;14.07;;;4.13;;
30036;SDS011;36325;51.512;-0.382;2023-05-27T12:58:39;11.07;;;4.60;;
30036;SDS011;36325;51.512;-0.382;2023-05-27T13:01:07;12.82;;;4.47;;
30036;SDS011;36325;51.512;-0.382;2023-05-27T13:03:34;13.73;;;4.78;;
30036;SDS011;36325;51.512;-0.382;2023-05-27T13:06:02;12.55;;;3.88;;
30036;SDS011;36325;51.512;-0.382;2023-05-27T13:08:30;13.90;;;4.10;;
30036;SDS011;36325;51.512;-0.382;2023-05-27T13:10:57;16.42;;;4.60;;
30036;SDS011;36325;51.512;-0.382;2023-05-27T13:13:25;7.97;;;4.15;;
30036;SDS011;36325;51.512;-0.382;2023-05-27T13:15:53;17.08;;;4.15;;
30036;SDS011;36325;51.512;-0.382;2023-05-27T13:18:20;8.65;;;3.92;;
30036;SDS011;36325;51.512;-0.382;2023-05-27T13:20:48;9.52;;;4.03;;
30036;SDS011;36325;51.512;-0.382;2023-05-27T13:23:16;14.18;;;3.88;;
30036;SDS011;36325;51.512;-0.382;2023-05-27T13:25:43;11.00;;;4.15;;
30036;SDS011;36325;51.512;-0.382;2023-05-27T13:28:10;13.93;;;5.05;;
30036;SDS011;36325;51.512;-0.382;2023-05-27T13:30:38;12.40;;;4.68;;
30036;SDS011;36325;51.512;-0.382;2023-05-27T13:33:07;11.20;;;4.13;;
30036;SDS011;36325;51.512;-0.382;2023-05-27T13:35:35;13.20;;;4.20;;
30036;SDS011;36325;51.512;-0.382;2023-05-27T13:38:02;12.43;;;4.03;;
30036;SDS011;36325;51.512;-0.382;2023-05-27T13:40:30;8.75;;;3.92;;
30036;SDS011;36325;51.512;-0.382;2023-05-27T13:42:57;8.32;;;3.63;;
30036;SDS011;36325;51.512;-0.382;2023-05-27T13:45:25;11.80;;;4.20;;
30036;SDS011;36325;51.512;-0.382;2023-05-27T13:47:53;14.30;;;4.10;;
30036;SDS011;36325;51.512;-0.382;2023-05-27T13:50:21;9.98;;;4.20;;
30036;SDS011;36325;51.512;-0.382;2023-05-27T13:52:51;11.60;;;4.27;;
30036;SDS011;36325;51.512;-0.382;2023-05-27T13:55:18;9.68;;;3.85;;
30036;SDS011;36325;51.512;-0.382;2023-05-27T13:57:46;12.68;;;4.28;;
30036;SDS011;36325;51.512;-0.382;2023-05-27T14:00:13;10.10;;;3.83;;
30036;SDS011;36325;51.512;-0.382;2023-05-27T14:02:42;13.88;;;4.00;;
30036;SDS011;36325;51.512;-0.382;2023-05-27T14:05:10;13.30;;;4.45;;
30036;SDS011;36325;51.512;-0.382;2023-05-27T14:07:41;13.80;;;4.18;;
30036;SDS011;36325;51.512;-0.382;2023-05-27T14:10:13;9.35;;;4.15;;
30036;SDS011;36325;51.512;-0.382;2023-05-27T14:12:40;13.63;;;4.60;;
30036;SDS011;36325;51.512;-0.382;2023-05-27T14:15:07;11.93;;;3.83;;
30036;SDS011;36325;51.512;-0.382;2023-05-27T14:17:35;13.85;;;4.60;;
30036;SDS011;36325;51.512;-0.382;2023-05-27T14:20:03;9.15;;;4.05;;
30036;SDS011;36325;51.512;-0.382;2023-05-27T14:22:37;13.63;;;4.45;;
30036;SDS011;36325;51.512;-0.382;2023-05-27T14:25:05;9.80;;;3.67;;
30036;SDS011;36325;51.512;-0.382;2023-05-27T14:27:33;8.82;;;3.45;;
30036;SDS011;36325;51.512;-0.382;2023-05-27T14:30:00;9.77;;;3.67;;
30036;SDS011;36325;51.512;-0.382;2023-05-27T14:32:28;10.13;;;3.60;;
30036;SDS011;36325;51.512;-0.382;2023-05-27T14:34:55;10.40;;;3.92;;
30036;SDS011;36325;51.512;-0.382;2023-05-27T14:37:23;10.13;;;4.35;;
30036;SDS011;36325;51.512;-0.382;2023-05-27T14:39:51;7.85;;;3.83;;
30036;SDS011;36325;51.512;-0.382;2023-05-27T14:42:22;16.58;;;5.07;;
30036;SDS011;36325;51.512;-0.382;2023-05-27T14:44:49;11.48;;;4.72;;
30036;SDS011;36325;51.512;-0.382;2023-05-27T14:47:17;7.30;;;3.78;;
30036;SDS011;36325;51.512;-0.382;2023-05-27T14:49:44;9.77;;;4.03;;
30036;SDS011;36325;51.512;-0.382;2023-05-27T14:52:13;12.07;;;4.38;;